sensor_id;sensor_type;location;lat;lon;timestamp;P1;durP1;ratioP1;P2;durP2;ratioP2
17949;SDS011;9100;48.700;9.316;2024-03-17T00:00:42;4.5;;;4.1;;
17949;SDS011;9100;48.700;9.316;2024-03-17T00:01:42;4.5;;;4.1;;
17949;SDS011;9100;48.700;9.316;2024-03-17T00:02:42;4.5;;;4.1;;
17949;SDS011;9100;48.700;9.316;2024-03-17T00:03:38;5.6;;;3.8;;
17949;SDS011;9100;48.700;9.316;2024-03-17T00:03:42;5.6;;;3.8;;
17949;SDS011;9100;48.700;9.316;2024-03-17T00:04:42;5.6;;;3.8;;
17949;SDS011;9100;48.700;9.316;2024-03-17T00:05:42;5.6;;;3.8;;
17949;SDS011;9100;48.700;9.316;2024-03-17T00:06:42;5.6;;;3.8;;
17949;SDS011;9100;48.700;9.316;2024-03-17T00:07:42;5.6;;;3.8;;
17949;SDS011;9100;48.700;9.316;2024-03-17T00:08:38;5.1;;;4.6;;
17949;SDS011;9100;48.700;9.316;2024-03-17T00:08:42;5.1;;;4.6;;
17949;SDS011;9100;48.700;9.316;2024-03-17T00:09:42;5.1;;;4.6;;
17949;SDS011;9100;48.700;9.316;2024-03-17T00:10:42;5.1;;;4.6;;
17949;SDS011;9100;48.700;9.316;2024-03-17T00:11:42;5.1;;;4.6;;
17949;SDS011;9100;48.700;9.316;2024-03-17T00:12:42;5.1;;;4.6;;
17949;SDS011;9100;48.700;9.316;2024-03-17T00:13:38;5.3;;;4.8;;
17949;SDS011;9100;48.700;9.316;2024-03-17T00:13:42;5.3;;;4.8;;
17949;SDS011;9100;48.700;9.316;2024-03-17T00:14:42;5.3;;;4.8;;
17949;SDS011;9100;48.700;9.316;2024-03-17T00:15:42;5.3;;;4.8;;
17949;SDS011;9100;48.700;9.316;2024-03-17T00:16:42;5.3;;;4.8;;
17949;SDS011;9100;48.700;9.316;2024-03-17T00:17:42;5.3;;;4.8;;
17949;SDS011;9100;48.700;9.316;2024-03-17T00:18:38;4.9;;;4.5;;
17949;SDS011;9100;48.700;9.316;2024-03-17T00:18:42;4.9;;;4.5;;
17949;SDS011;9100;48.700;9.316;2024-03-17T00:19:42;4.9;;;4.5;;
17949;SDS011;9100;48.700;9.316;2024-03-17T00:20:42;4.9;;;4.5;;
17949;SDS011;9100;48.700;9.316;2024-03-17T00:21:42;4.9;;;4.5;;
17949;SDS011;9100;48.700;9.316;2024-03-17T00:22:42;4.9;;;4.5;;
17949;SDS011;9100;48.700;9.316;2024-03-17T00:23:38;5.5;;;4.6;;
17949;SDS011;9100;48.700;9.316;2024-03-17T00:23:42;5.5;;;4.6;;
17949;SDS011;9100;48.700;9.316;2024-03-17T00:24:42;5.5;;;4.6;;
17949;SDS011;9100;48.700;9.316;2024-03-17T00:25:42;5.5;;;4.6;;
17949;SDS011;9100;48.700;9.316;2024-03-17T00:26:42;5.5;;;4.6;;
17949;SDS011;9100;48.700;9.316;2024-03-17T00:27:42;5.5;;;4.6;;
17949;SDS011;9100;48.700;9.316;2024-03-17T00:28:38;5.1;;;4.6;;
17949;SDS011;9100;48.700;9.316;2024-03-17T00:28:42;5.1;;;4.6;;
17949;SDS011;9100;48.700;9.316;2024-03-17T00:29:42;5.1;;;4.6;;
17949;SDS011;9100;48.700;9.316;2024-03-17T00:30:43;5.1;;;4.6;;
17949;SDS011;9100;48.700;9.316;2024-03-17T00:31:43;5.1;;;4.6;;
17949;SDS011;9100;48.700;9.316;2024-03-17T00:32:43;5.1;;;4.6;;
17949;SDS011;9100;48.700;9.316;2024-03-17T00:33:38;5.2;;;4.7;;
17949;SDS011;9100;48.700;9.316;2024-03-17T00:33:43;5.2;;;4.7;;
17949;SDS011;9100;48.700;9.316;2024-03-17T00:34:43;5.2;;;4.7;;
17949;SDS011;9100;48.700;9.316;2024-03-17T00:35:42;5.2;;;4.7;;
17949;SDS011;9100;48.700;9.316;2024-03-17T00:36:43;5.2;;;4.7;;
17949;SDS011;9100;48.700;9.316;2024-03-17T00:37:43;5.2;;;4.7;;
17949;SDS011;9100;48.700;9.316;2024-03-17T00:38:38;5;;;4.5;;
17949;SDS011;9100;48.700;9.316;2024-03-17T00:38:42;5;;;4.5;;
17949;SDS011;9100;48.700;9.316;2024-03-17T00:39:42;5;;;4.5;;
17949;SDS011;9100;48.700;9.316;2024-03-17T00:40:42;5;;;4.5;;
17949;SDS011;9100;48.700;9.316;2024-03-17T00:41:43;5;;;4.5;;
17949;SDS011;9100;48.700;9.316;2024-03-17T00:42:42;5;;;4.5;;
17949;SDS011;9100;48.700;9.316;2024-03-17T00:43:38;4.6;;;4.2;;
17949;SDS011;9100;48.700;9.316;2024-03-17T00:43:42;4.6;;;4.2;;
17949;SDS011;9100;48.700;9.316;2024-03-17T00:44:43;4.6;;;4.2;;
17949;SDS011;9100;48.700;9.316;2024-03-17T00:45:42;4.6;;;4.2;;
17949;SDS011;9100;48.700;9.316;2024-03-17T00:46:42;4.6;;;4.2;;
17949;SDS011;9100;48.700;9.316;2024-03-17T00:47:42;4.6;;;4.2;;
17949;SDS011;9100;48.700;9.316;2024-03-17T00:48:38;6;;;5;;
17949;SDS011;9100;48.700;9.316;2024-03-17T00:48:42;6;;;5;;
17949;SDS011;9100;48.700;9.316;2024-03-17T00:49:42;6;;;5;;
17949;SDS011;9100;48.700;9.316;2024-03-17T00:50:42;6;;;5;;
17949;SDS011;9100;48.700;9.316;2024-03-17T00:51:42;6;;;5;;
17949;SDS011;9100;48.700;9.316;2024-03-17T00:52:42;6;;;5;;
17949;SDS011;9100;48.700;9.316;2024-03-17T00:53:38;8.6;;;5.4;;
17949;SDS011;9100;48.700;9.316;2024-03-17T00:53:42;8.6;;;5.4;;
17949;SDS011;9100;48.700;9.316;2024-03-17T00:54:43;8.6;;;5.4;;
17949;SDS011;9100;48.700;9.316;2024-03-17T00:55:42;8.6;;;5.4;;
17949;SDS011;9100;48.700;9.316;2024-03-17T00:56:42;8.6;;;5.4;;
17949;SDS011;9100;48.700;9.316;2024-03-17T00:57:42;8.6;;;5.4;;
17949;SDS011;9100;48.700;9.316;2024-03-17T00:58:38;4.9;;;4.5;;
17949;SDS011;9100;48.700;9.316;2024-03-17T00:58:42;4.9;;;4.5;;
17949;SDS011;9100;48.700;9.316;2024-03-17T00:59:42;4.9;;;4.5;;
17949;SDS011;9100;48.700;9.316;2024-03-17T01:00:42;4.9;;;4.5;;
17949;SDS011;9100;48.700;9.316;2024-03-17T01:01:42;4.9;;;4.5;;
17949;SDS011;9100;48.700;9.316;2024-03-17T01:02:43;4.9;;;4.5;;
17949;SDS011;9100;48.700;9.316;2024-03-17T01:03:38;5;;;4.6;;
17949;SDS011;9100;48.700;9.316;2024-03-17T01:03:42;5;;;4.6;;
17949;SDS011;9100;48.700;9.316;2024-03-17T01:04:42;5;;;4.6;;
17949;SDS011;9100;48.700;9.316;2024-03-17T01:05:42;5;;;4.6;;
17949;SDS011;9100;48.700;9.316;2024-03-17T01:06:43;5;;;4.6;;
17949;SDS011;9100;48.700;9.316;2024-03-17T01:07:42;5;;;4.6;;
17949;SDS011;9100;48.700;9.316;2024-03-17T01:08:38;4.7;;;4.3;;
17949;SDS011;9100;48.700;9.316;2024-03-17T01:08:42;4.7;;;4.3;;
17949;SDS011;9100;48.700;9.316;2024-03-17T01:09:42;4.7;;;4.3;;
17949;SDS011;9100;48.700;9.316;2024-03-17T01:10:43;4.7;;;4.3;;
17949;SDS011;9100;48.700;9.316;2024-03-17T01:11:43;4.7;;;4.3;;
17949;SDS011;9100;48.700;9.316;2024-03-17T01:12:42;4.7;;;4.3;;
17949;SDS011;9100;48.700;9.316;2024-03-17T01:13:38;5.1;;;4.7;;
17949;SDS011;9100;48.700;9.316;2024-03-17T01:13:42;5.1;;;4.7;;
17949;SDS011;9100;48.700;9.316;2024-03-17T01:14:42;5.1;;;4.7;;
17949;SDS011;9100;48.700;9.316;2024-03-17T01:15:43;5.1;;;4.7;;
17949;SDS011;9100;48.700;9.316;2024-03-17T01:16:42;5.1;;;4.7;;
17949;SDS011;9100;48.700;9.316;2024-03-17T01:17:42;5.1;;;4.7;;
17949;SDS011;9100;48.700;9.316;2024-03-17T01:18:38;5.1;;;4.7;;
17949;SDS011;9100;48.700;9.316;2024-03-17T01:18:42;5.1;;;4.7;;
17949;SDS011;9100;48.700;9.316;2024-03-17T01:19:42;5.1;;;4.7;;
17949;SDS011;9100;48.700;9.316;2024-03-17T01:20:42;5.1;;;4.7;;
17949;SDS011;9100;48.700;9.316;2024-03-17T01:21:42;5.1;;;4.7;;
17949;SDS011;9100;48.700;9.316;2024-03-17T01:22:42;5.1;;;4.7;;
17949;SDS011;9100;48.700;9.316;2024-03-17T01:23:38;5.7;;;4.6;;
17949;SDS011;9100;48.700;9.316;2024-03-17T01:23:42;5.7;;;4.6;;
17949;SDS011;9100;48.700;9.316;2024-03-17T01:24:42;5.7;;;4.6;;
17949;SDS011;9100;48.700;9.316;2024-03-17T01:25:42;5.7;;;4.6;;
17949;SDS011;9100;48.700;9.316;2024-03-17T01:26:42;5.7;;;4.6;;
17949;SDS011;9100;48.700;9.316;2024-03-17T01:27:42;5.7;;;4.6;;
17949;SDS011;9100;48.700;9.316;2024-03-17T01:28:38;5.8;;;5.2;;
17949;SDS011;9100;48.700;9.316;2024-03-17T01:28:42;5.8;;;5.2;;
17949;SDS011;9100;48.700;9.316;2024-03-17T01:29:42;5.8;;;5.2;;
17949;SDS011;9100;48.700;9.316;2024-03-17T01:30:42;5.8;;;5.2;;
17949;SDS011;9100;48.700;9.316;2024-03-17T01:31:42;5.8;;;5.2;;
17949;SDS011;9100;48.700;9.316;2024-03-17T01:32:43;5.8;;;5.2;;
17949;SDS011;9100;48.700;9.316;2024-03-17T01:33:38;5.4;;;4.9;;
17949;SDS011;9100;48.700;9.316;2024-03-17T01:33:42;5.4;;;4.9;;
17949;SDS011;9100;48.700;9.316;2024-03-17T01:34:42;5.4;;;4.9;;
17949;SDS011;9100;48.700;9.316;2024-03-17T01:35:42;5.4;;;4.9;;
17949;SDS011;9100;48.700;9.316;2024-03-17T01:36:42;5.4;;;4.9;;
17949;SDS011;9100;48.700;9.316;2024-03-17T01:37:42;5.4;;;4.9;;
17949;SDS011;9100;48.700;9.316;2024-03-17T01:38:38;5.6;;;5.1;;
17949;SDS011;9100;48.700;9.316;2024-03-17T01:38:42;5.6;;;5.1;;
17949;SDS011;9100;48.700;9.316;2024-03-17T01:39:42;5.6;;;5.1;;
17949;SDS011;9100;48.700;9.316;2024-03-17T01:40:42;5.6;;;5.1;;
17949;SDS011;9100;48.700;9.316;2024-03-17T01:41:42;5.6;;;5.1;;
17949;SDS011;9100;48.700;9.316;2024-03-17T01:42:43;5.6;;;5.1;;
17949;SDS011;9100;48.700;9.316;2024-03-17T01:43:38;5.4;;;5;;
17949;SDS011;9100;48.700;9.316;2024-03-17T01:43:43;5.4;;;5;;
17949;SDS011;9100;48.700;9.316;2024-03-17T01:44:42;5.4;;;5;;
17949;SDS011;9100;48.700;9.316;2024-03-17T01:45:42;5.4;;;5;;
17949;SDS011;9100;48.700;9.316;2024-03-17T01:46:42;5.4;;;5;;
17949;SDS011;9100;48.700;9.316;2024-03-17T01:47:43;5.4;;;5;;
17949;SDS011;9100;48.700;9.316;2024-03-17T01:48:38;5.3;;;4.8;;
17949;SDS011;9100;48.700;9.316;2024-03-17T01:48:42;5.3;;;4.8;;
17949;SDS011;9100;48.700;9.316;2024-03-17T01:49:42;5.3;;;4.8;;
17949;SDS011;9100;48.700;9.316;2024-03-17T01:50:42;5.3;;;4.8;;
17949;SDS011;9100;48.700;9.316;2024-03-17T01:51:42;5.3;;;4.8;;
17949;SDS011;9100;48.700;9.316;2024-03-17T01:52:42;5.3;;;4.8;;
17949;SDS011;9100;48.700;9.316;2024-03-17T01:53:38;5.5;;;5;;
17949;SDS011;9100;48.700;9.316;2024-03-17T01:53:43;5.5;;;5;;
17949;SDS011;9100;48.700;9.316;2024-03-17T01:54:43;5.5;;;5;;
17949;SDS011;9100;48.700;9.316;2024-03-17T01:55:43;5.5;;;5;;
17949;SDS011;9100;48.700;9.316;2024-03-17T01:56:43;5.5;;;5;;
17949;SDS011;9100;48.700;9.316;2024-03-17T01:57:43;5.5;;;5;;
17949;SDS011;9100;48.700;9.316;2024-03-17T01:58:38;8.8;;;5.3;;
17949;SDS011;9100;48.700;9.316;2024-03-17T01:58:42;8.8;;;5.3;;
17949;SDS011;9100;48.700;9.316;2024-03-17T01:59:42;8.8;;;5.3;;
17949;SDS011;9100;48.700;9.316;2024-03-17T02:00:42;8.8;;;5.3;;
17949;SDS011;9100;48.700;9.316;2024-03-17T02:01:42;8.8;;;5.3;;
17949;SDS011;9100;48.700;9.316;2024-03-17T02:02:43;8.8;;;5.3;;
17949;SDS011;9100;48.700;9.316;2024-03-17T02:03:38;5.9;;;5.2;;
17949;SDS011;9100;48.700;9.316;2024-03-17T02:03:42;5.9;;;5.2;;
17949;SDS011;9100;48.700;9.316;2024-03-17T02:04:42;5.9;;;5.2;;
17949;SDS011;9100;48.700;9.316;2024-03-17T02:05:42;5.9;;;5.2;;
17949;SDS011;9100;48.700;9.316;2024-03-17T02:06:42;5.9;;;5.2;;
17949;SDS011;9100;48.700;9.316;2024-03-17T02:07:42;5.9;;;5.2;;
17949;SDS011;9100;48.700;9.316;2024-03-17T02:08:46;15.5;;;4.9;;
17949;SDS011;9100;48.700;9.316;2024-03-17T02:08:53;15.5;;;4.9;;
17949;SDS011;9100;48.700;9.316;2024-03-17T02:09:42;15.5;;;4.9;;
17949;SDS011;9100;48.700;9.316;2024-03-17T02:10:42;15.5;;;4.9;;
17949;SDS011;9100;48.700;9.316;2024-03-17T02:11:42;15.5;;;4.9;;
17949;SDS011;9100;48.700;9.316;2024-03-17T02:12:42;15.5;;;4.9;;
17949;SDS011;9100;48.700;9.316;2024-03-17T02:13:38;5.9;;;5.3;;
17949;SDS011;9100;48.700;9.316;2024-03-17T02:13:42;5.9;;;5.3;;
17949;SDS011;9100;48.700;9.316;2024-03-17T02:14:42;5.9;;;5.3;;
17949;SDS011;9100;48.700;9.316;2024-03-17T02:15:43;5.9;;;5.3;;
17949;SDS011;9100;48.700;9.316;2024-03-17T02:16:43;5.9;;;5.3;;
17949;SDS011;9100;48.700;9.316;2024-03-17T02:17:42;5.9;;;5.3;;
17949;SDS011;9100;48.700;9.316;2024-03-17T02:18:38;7;;;5.5;;
17949;SDS011;9100;48.700;9.316;2024-03-17T02:18:42;7;;;5.5;;
17949;SDS011;9100;48.700;9.316;2024-03-17T02:19:42;7;;;5.5;;
17949;SDS011;9100;48.700;9.316;2024-03-17T02:20:42;7;;;5.5;;
17949;SDS011;9100;48.700;9.316;2024-03-17T02:21:42;7;;;5.5;;
17949;SDS011;9100;48.700;9.316;2024-03-17T02:22:43;7;;;5.5;;
17949;SDS011;9100;48.700;9.316;2024-03-17T02:23:38;5.6;;;5.1;;
17949;SDS011;9100;48.700;9.316;2024-03-17T02:23:42;5.6;;;5.1;;
17949;SDS011;9100;48.700;9.316;2024-03-17T02:24:42;5.6;;;5.1;;
17949;SDS011;9100;48.700;9.316;2024-03-17T02:25:42;5.6;;;5.1;;
17949;SDS011;9100;48.700;9.316;2024-03-17T02:26:42;5.6;;;5.1;;
17949;SDS011;9100;48.700;9.316;2024-03-17T02:27:43;5.6;;;5.1;;
17949;SDS011;9100;48.700;9.316;2024-03-17T02:28:38;6.6;;;5.6;;
17949;SDS011;9100;48.700;9.316;2024-03-17T02:28:43;6.6;;;5.6;;
17949;SDS011;9100;48.700;9.316;2024-03-17T02:29:42;6.6;;;5.6;;
17949;SDS011;9100;48.700;9.316;2024-03-17T02:30:42;6.6;;;5.6;;
17949;SDS011;9100;48.700;9.316;2024-03-17T02:31:42;6.6;;;5.6;;
17949;SDS011;9100;48.700;9.316;2024-03-17T02:32:43;6.6;;;5.6;;
17949;SDS011;9100;48.700;9.316;2024-03-17T02:33:38;7.4;;;5;;
17949;SDS011;9100;48.700;9.316;2024-03-17T02:33:43;7.4;;;5;;
17949;SDS011;9100;48.700;9.316;2024-03-17T02:34:42;7.4;;;5;;
17949;SDS011;9100;48.700;9.316;2024-03-17T02:35:43;7.4;;;5;;
17949;SDS011;9100;48.700;9.316;2024-03-17T02:36:42;7.4;;;5;;
17949;SDS011;9100;48.700;9.316;2024-03-17T02:37:42;7.4;;;5;;
17949;SDS011;9100;48.700;9.316;2024-03-17T02:38:38;6.8;;;5.8;;
17949;SDS011;9100;48.700;9.316;2024-03-17T02:38:42;6.8;;;5.8;;
17949;SDS011;9100;48.700;9.316;2024-03-17T02:39:43;6.8;;;5.8;;
17949;SDS011;9100;48.700;9.316;2024-03-17T02:40:43;6.8;;;5.8;;
17949;SDS011;9100;48.700;9.316;2024-03-17T02:41:43;6.8;;;5.8;;
17949;SDS011;9100;48.700;9.316;2024-03-17T02:42:42;6.8;;;5.8;;
17949;SDS011;9100;48.700;9.316;2024-03-17T02:43:38;6.2;;;5.6;;
17949;SDS011;9100;48.700;9.316;2024-03-17T02:43:42;6.2;;;5.6;;
17949;SDS011;9100;48.700;9.316;2024-03-17T02:44:43;6.2;;;5.6;;
17949;SDS011;9100;48.700;9.316;2024-03-17T02:45:42;6.2;;;5.6;;
17949;SDS011;9100;48.700;9.316;2024-03-17T02:46:42;6.2;;;5.6;;
17949;SDS011;9100;48.700;9.316;2024-03-17T02:47:42;6.2;;;5.6;;
17949;SDS011;9100;48.700;9.316;2024-03-17T02:48:38;5.9;;;5.4;;
17949;SDS011;9100;48.700;9.316;2024-03-17T02:48:42;5.9;;;5.4;;
17949;SDS011;9100;48.700;9.316;2024-03-17T02:49:43;5.9;;;5.4;;
17949;SDS011;9100;48.700;9.316;2024-03-17T02:50:43;5.9;;;5.4;;
17949;SDS011;9100;48.700;9.316;2024-03-17T02:51:43;5.9;;;5.4;;
17949;SDS011;9100;48.700;9.316;2024-03-17T02:52:42;5.9;;;5.4;;
17949;SDS011;9100;48.700;9.316;2024-03-17T02:53:38;5.5;;;4.7;;
17949;SDS011;9100;48.700;9.316;2024-03-17T02:53:43;5.5;;;4.7;;
17949;SDS011;9100;48.700;9.316;2024-03-17T02:54:42;5.5;;;4.7;;
17949;SDS011;9100;48.700;9.316;2024-03-17T02:55:43;5.5;;;4.7;;
17949;SDS011;9100;48.700;9.316;2024-03-17T02:56:43;5.5;;;4.7;;
17949;SDS011;9100;48.700;9.316;2024-03-17T02:57:43;5.5;;;4.7;;
17949;SDS011;9100;48.700;9.316;2024-03-17T02:58:38;7.1;;;4.9;;
17949;SDS011;9100;48.700;9.316;2024-03-17T02:58:43;7.1;;;4.9;;
17949;SDS011;9100;48.700;9.316;2024-03-17T02:59:42;7.1;;;4.9;;
17949;SDS011;9100;48.700;9.316;2024-03-17T03:00:43;7.1;;;4.9;;
17949;SDS011;9100;48.700;9.316;2024-03-17T03:01:43;7.1;;;4.9;;
17949;SDS011;9100;48.700;9.316;2024-03-17T03:02:43;7.1;;;4.9;;
17949;SDS011;9100;48.700;9.316;2024-03-17T03:03:38;6.2;;;5.5;;
17949;SDS011;9100;48.700;9.316;2024-03-17T03:03:42;6.2;;;5.5;;
17949;SDS011;9100;48.700;9.316;2024-03-17T03:04:43;6.2;;;5.5;;
17949;SDS011;9100;48.700;9.316;2024-03-17T03:05:42;6.2;;;5.5;;
17949;SDS011;9100;48.700;9.316;2024-03-17T03:06:42;6.2;;;5.5;;
17949;SDS011;9100;48.700;9.316;2024-03-17T03:07:43;6.2;;;5.5;;
17949;SDS011;9100;48.700;9.316;2024-03-17T03:08:38;6;;;5.4;;
17949;SDS011;9100;48.700;9.316;2024-03-17T03:08:42;6;;;5.4;;
17949;SDS011;9100;48.700;9.316;2024-03-17T03:09:42;6;;;5.4;;
17949;SDS011;9100;48.700;9.316;2024-03-17T03:10:43;6;;;5.4;;
17949;SDS011;9100;48.700;9.316;2024-03-17T03:11:42;6;;;5.4;;
17949;SDS011;9100;48.700;9.316;2024-03-17T03:12:42;6;;;5.4;;
17949;SDS011;9100;48.700;9.316;2024-03-17T03:13:38;7.3;;;5.9;;
17949;SDS011;9100;48.700;9.316;2024-03-17T03:13:43;7.3;;;5.9;;
17949;SDS011;9100;48.700;9.316;2024-03-17T03:14:42;7.3;;;5.9;;
17949;SDS011;9100;48.700;9.316;2024-03-17T03:15:42;7.3;;;5.9;;
17949;SDS011;9100;48.700;9.316;2024-03-17T03:16:42;7.3;;;5.9;;
17949;SDS011;9100;48.700;9.316;2024-03-17T03:17:42;7.3;;;5.9;;
17949;SDS011;9100;48.700;9.316;2024-03-17T03:18:38;7.5;;;6.3;;
17949;SDS011;9100;48.700;9.316;2024-03-17T03:18:43;7.5;;;6.3;;
17949;SDS011;9100;48.700;9.316;2024-03-17T03:19:43;7.5;;;6.3;;
17949;SDS011;9100;48.700;9.316;2024-03-17T03:20:42;7.5;;;6.3;;
17949;SDS011;9100;48.700;9.316;2024-03-17T03:21:42;7.5;;;6.3;;
17949;SDS011;9100;48.700;9.316;2024-03-17T03:22:42;7.5;;;6.3;;
17949;SDS011;9100;48.700;9.316;2024-03-17T03:23:38;7.9;;;6.2;;
17949;SDS011;9100;48.700;9.316;2024-03-17T03:23:43;7.9;;;6.2;;
17949;SDS011;9100;48.700;9.316;2024-03-17T03:24:43;7.9;;;6.2;;
17949;SDS011;9100;48.700;9.316;2024-03-17T03:25:43;7.9;;;6.2;;
17949;SDS011;9100;48.700;9.316;2024-03-17T03:26:43;7.9;;;6.2;;
17949;SDS011;9100;48.700;9.316;2024-03-17T03:27:42;7.9;;;6.2;;
17949;SDS011;9100;48.700;9.316;2024-03-17T03:28:38;7.8;;;6.1;;
17949;SDS011;9100;48.700;9.316;2024-03-17T03:28:43;7.8;;;6.1;;
17949;SDS011;9100;48.700;9.316;2024-03-17T03:29:43;7.8;;;6.1;;
17949;SDS011;9100;48.700;9.316;2024-03-17T03:30:43;7.8;;;6.1;;
17949;SDS011;9100;48.700;9.316;2024-03-17T03:32:43;7.8;;;6.1;;
17949;SDS011;9100;48.700;9.316;2024-03-17T03:33:38;8.3;;;6.3;;
17949;SDS011;9100;48.700;9.316;2024-03-17T03:33:43;8.3;;;6.3;;
17949;SDS011;9100;48.700;9.316;2024-03-17T03:34:43;8.3;;;6.3;;
17949;SDS011;9100;48.700;9.316;2024-03-17T03:35:43;8.3;;;6.3;;
17949;SDS011;9100;48.700;9.316;2024-03-17T03:36:43;8.3;;;6.3;;
17949;SDS011;9100;48.700;9.316;2024-03-17T03:37:43;8.3;;;6.3;;
17949;SDS011;9100;48.700;9.316;2024-03-17T03:38:38;7.2;;;6.5;;
17949;SDS011;9100;48.700;9.316;2024-03-17T03:38:42;7.2;;;6.5;;
17949;SDS011;9100;48.700;9.316;2024-03-17T03:39:42;7.2;;;6.5;;
17949;SDS011;9100;48.700;9.316;2024-03-17T03:40:43;7.2;;;6.5;;
17949;SDS011;9100;48.700;9.316;2024-03-17T03:41:42;7.2;;;6.5;;
17949;SDS011;9100;48.700;9.316;2024-03-17T03:42:43;7.2;;;6.5;;
17949;SDS011;9100;48.700;9.316;2024-03-17T03:43:38;6.6;;;5.9;;
17949;SDS011;9100;48.700;9.316;2024-03-17T03:43:42;6.6;;;5.9;;
17949;SDS011;9100;48.700;9.316;2024-03-17T03:44:42;6.6;;;5.9;;
17949;SDS011;9100;48.700;9.316;2024-03-17T03:45:43;6.6;;;5.9;;
17949;SDS011;9100;48.700;9.316;2024-03-17T03:46:43;6.6;;;5.9;;
17949;SDS011;9100;48.700;9.316;2024-03-17T03:47:43;6.6;;;5.9;;
17949;SDS011;9100;48.700;9.316;2024-03-17T03:48:38;6.8;;;6.1;;
17949;SDS011;9100;48.700;9.316;2024-03-17T03:48:43;6.8;;;6.1;;
17949;SDS011;9100;48.700;9.316;2024-03-17T03:49:42;6.8;;;6.1;;
17949;SDS011;9100;48.700;9.316;2024-03-17T03:50:43;6.8;;;6.1;;
17949;SDS011;9100;48.700;9.316;2024-03-17T03:51:42;6.8;;;6.1;;
17949;SDS011;9100;48.700;9.316;2024-03-17T03:52:43;6.8;;;6.1;;
17949;SDS011;9100;48.700;9.316;2024-03-17T03:53:38;7.4;;;6.1;;
17949;SDS011;9100;48.700;9.316;2024-03-17T03:53:42;7.4;;;6.1;;
17949;SDS011;9100;48.700;9.316;2024-03-17T03:54:42;7.4;;;6.1;;
17949;SDS011;9100;48.700;9.316;2024-03-17T03:55:43;7.4;;;6.1;;
17949;SDS011;9100;48.700;9.316;2024-03-17T03:56:43;7.4;;;6.1;;
17949;SDS011;9100;48.700;9.316;2024-03-17T03:57:43;7.4;;;6.1;;
17949;SDS011;9100;48.700;9.316;2024-03-17T03:58:38;5.6;;;5;;
17949;SDS011;9100;48.700;9.316;2024-03-17T03:58:42;5.6;;;5;;
17949;SDS011;9100;48.700;9.316;2024-03-17T03:59:42;5.6;;;5;;
17949;SDS011;9100;48.700;9.316;2024-03-17T04:00:43;5.6;;;5;;
17949;SDS011;9100;48.700;9.316;2024-03-17T04:01:43;5.6;;;5;;
17949;SDS011;9100;48.700;9.316;2024-03-17T04:02:43;5.6;;;5;;
17949;SDS011;9100;48.700;9.316;2024-03-17T04:03:38;7.5;;;5.6;;
17949;SDS011;9100;48.700;9.316;2024-03-17T04:03:42;7.5;;;5.6;;
17949;SDS011;9100;48.700;9.316;2024-03-17T04:04:43;7.5;;;5.6;;
17949;SDS011;9100;48.700;9.316;2024-03-17T04:05:43;7.5;;;5.6;;
17949;SDS011;9100;48.700;9.316;2024-03-17T04:06:43;7.5;;;5.6;;
17949;SDS011;9100;48.700;9.316;2024-03-17T04:07:43;7.5;;;5.6;;
17949;SDS011;9100;48.700;9.316;2024-03-17T04:08:38;9;;;6.4;;
17949;SDS011;9100;48.700;9.316;2024-03-17T04:08:43;9;;;6.4;;
17949;SDS011;9100;48.700;9.316;2024-03-17T04:09:43;9;;;6.4;;
17949;SDS011;9100;48.700;9.316;2024-03-17T04:10:43;9;;;6.4;;
17949;SDS011;9100;48.700;9.316;2024-03-17T04:11:43;9;;;6.4;;
17949;SDS011;9100;48.700;9.316;2024-03-17T04:12:43;9;;;6.4;;
17949;SDS011;9100;48.700;9.316;2024-03-17T04:13:38;7;;;5.7;;
17949;SDS011;9100;48.700;9.316;2024-03-17T04:13:42;7;;;5.7;;
17949;SDS011;9100;48.700;9.316;2024-03-17T04:14:42;7;;;5.7;;
17949;SDS011;9100;48.700;9.316;2024-03-17T04:15:42;7;;;5.7;;
17949;SDS011;9100;48.700;9.316;2024-03-17T04:16:43;7;;;5.7;;
17949;SDS011;9100;48.700;9.316;2024-03-17T04:17:43;7;;;5.7;;
17949;SDS011;9100;48.700;9.316;2024-03-17T04:18:38;6.9;;;6.1;;
17949;SDS011;9100;48.700;9.316;2024-03-17T04:18:42;6.9;;;6.1;;
17949;SDS011;9100;48.700;9.316;2024-03-17T04:19:42;6.9;;;6.1;;
17949;SDS011;9100;48.700;9.316;2024-03-17T04:20:42;6.9;;;6.1;;
17949;SDS011;9100;48.700;9.316;2024-03-17T04:21:43;6.9;;;6.1;;
17949;SDS011;9100;48.700;9.316;2024-03-17T04:22:43;6.9;;;6.1;;
17949;SDS011;9100;48.700;9.316;2024-03-17T04:23:38;9.3;;;5.4;;
17949;SDS011;9100;48.700;9.316;2024-03-17T04:23:43;9.3;;;5.4;;
17949;SDS011;9100;48.700;9.316;2024-03-17T04:24:42;9.3;;;5.4;;
17949;SDS011;9100;48.700;9.316;2024-03-17T04:25:43;9.3;;;5.4;;
17949;SDS011;9100;48.700;9.316;2024-03-17T04:26:43;9.3;;;5.4;;
17949;SDS011;9100;48.700;9.316;2024-03-17T04:27:42;9.3;;;5.4;;
17949;SDS011;9100;48.700;9.316;2024-03-17T04:28:38;7;;;5.6;;
17949;SDS011;9100;48.700;9.316;2024-03-17T04:28:42;7;;;5.6;;
17949;SDS011;9100;48.700;9.316;2024-03-17T04:29:43;7;;;5.6;;
17949;SDS011;9100;48.700;9.316;2024-03-17T04:30:43;7;;;5.6;;
17949;SDS011;9100;48.700;9.316;2024-03-17T04:31:43;7;;;5.6;;
17949;SDS011;9100;48.700;9.316;2024-03-17T04:32:43;7;;;5.6;;
17949;SDS011;9100;48.700;9.316;2024-03-17T04:33:38;10.7;;;5.7;;
17949;SDS011;9100;48.700;9.316;2024-03-17T04:33:43;10.7;;;5.7;;
17949;SDS011;9100;48.700;9.316;2024-03-17T04:34:43;10.7;;;5.7;;
17949;SDS011;9100;48.700;9.316;2024-03-17T04:35:43;10.7;;;5.7;;
17949;SDS011;9100;48.700;9.316;2024-03-17T04:36:43;10.7;;;5.7;;
17949;SDS011;9100;48.700;9.316;2024-03-17T04:37:43;10.7;;;5.7;;
17949;SDS011;9100;48.700;9.316;2024-03-17T04:38:38;7.6;;;6;;
17949;SDS011;9100;48.700;9.316;2024-03-17T04:38:43;7.6;;;6;;
17949;SDS011;9100;48.700;9.316;2024-03-17T04:39:43;7.6;;;6;;
17949;SDS011;9100;48.700;9.316;2024-03-17T04:40:43;7.6;;;6;;
17949;SDS011;9100;48.700;9.316;2024-03-17T04:41:43;7.6;;;6;;
17949;SDS011;9100;48.700;9.316;2024-03-17T04:42:43;7.6;;;6;;
17949;SDS011;9100;48.700;9.316;2024-03-17T04:43:38;7.2;;;6.1;;
17949;SDS011;9100;48.700;9.316;2024-03-17T04:43:43;7.2;;;6.1;;
17949;SDS011;9100;48.700;9.316;2024-03-17T04:44:43;7.2;;;6.1;;
17949;SDS011;9100;48.700;9.316;2024-03-17T04:45:43;7.2;;;6.1;;
17949;SDS011;9100;48.700;9.316;2024-03-17T04:46:43;7.2;;;6.1;;
17949;SDS011;9100;48.700;9.316;2024-03-17T04:47:43;7.2;;;6.1;;
17949;SDS011;9100;48.700;9.316;2024-03-17T04:48:38;7.9;;;5.5;;
17949;SDS011;9100;48.700;9.316;2024-03-17T04:48:43;7.9;;;5.5;;
17949;SDS011;9100;48.700;9.316;2024-03-17T04:49:43;7.9;;;5.5;;
17949;SDS011;9100;48.700;9.316;2024-03-17T04:50:43;7.9;;;5.5;;
17949;SDS011;9100;48.700;9.316;2024-03-17T04:51:43;7.9;;;5.5;;
17949;SDS011;9100;48.700;9.316;2024-03-17T04:52:43;7.9;;;5.5;;
17949;SDS011;9100;48.700;9.316;2024-03-17T04:53:38;7;;;5.6;;
17949;SDS011;9100;48.700;9.316;2024-03-17T04:53:43;7;;;5.6;;
17949;SDS011;9100;48.700;9.316;2024-03-17T04:54:43;7;;;5.6;;
17949;SDS011;9100;48.700;9.316;2024-03-17T04:55:43;7;;;5.6;;
17949;SDS011;9100;48.700;9.316;2024-03-17T04:56:43;7;;;5.6;;
17949;SDS011;9100;48.700;9.316;2024-03-17T04:57:43;7;;;5.6;;
17949;SDS011;9100;48.700;9.316;2024-03-17T04:58:38;7.4;;;6.5;;
17949;SDS011;9100;48.700;9.316;2024-03-17T04:58:42;7.4;;;6.5;;
17949;SDS011;9100;48.700;9.316;2024-03-17T04:59:43;7.4;;;6.5;;
17949;SDS011;9100;48.700;9.316;2024-03-17T05:00:43;7.4;;;6.5;;
17949;SDS011;9100;48.700;9.316;2024-03-17T05:01:43;7.4;;;6.5;;
17949;SDS011;9100;48.700;9.316;2024-03-17T05:02:43;7.4;;;6.5;;
17949;SDS011;9100;48.700;9.316;2024-03-17T05:03:38;6.5;;;5.9;;
17949;SDS011;9100;48.700;9.316;2024-03-17T05:03:42;6.5;;;5.9;;
17949;SDS011;9100;48.700;9.316;2024-03-17T05:04:43;6.5;;;5.9;;
17949;SDS011;9100;48.700;9.316;2024-03-17T05:05:42;6.5;;;5.9;;
17949;SDS011;9100;48.700;9.316;2024-03-17T05:06:43;6.5;;;5.9;;
17949;SDS011;9100;48.700;9.316;2024-03-17T05:07:43;6.5;;;5.9;;
17949;SDS011;9100;48.700;9.316;2024-03-17T05:08:38;7.6;;;6.3;;
17949;SDS011;9100;48.700;9.316;2024-03-17T05:08:43;7.6;;;6.3;;
17949;SDS011;9100;48.700;9.316;2024-03-17T05:09:43;7.6;;;6.3;;
17949;SDS011;9100;48.700;9.316;2024-03-17T05:10:43;7.6;;;6.3;;
17949;SDS011;9100;48.700;9.316;2024-03-17T05:11:43;7.6;;;6.3;;
17949;SDS011;9100;48.700;9.316;2024-03-17T05:12:44;7.6;;;6.3;;
17949;SDS011;9100;48.700;9.316;2024-03-17T05:13:38;7.6;;;6.1;;
17949;SDS011;9100;48.700;9.316;2024-03-17T05:13:43;7.6;;;6.1;;
17949;SDS011;9100;48.700;9.316;2024-03-17T05:14:43;7.6;;;6.1;;
17949;SDS011;9100;48.700;9.316;2024-03-17T05:15:43;7.6;;;6.1;;
17949;SDS011;9100;48.700;9.316;2024-03-17T05:16:43;7.6;;;6.1;;
17949;SDS011;9100;48.700;9.316;2024-03-17T05:17:43;7.6;;;6.1;;
17949;SDS011;9100;48.700;9.316;2024-03-17T05:18:38;7.5;;;6.1;;
17949;SDS011;9100;48.700;9.316;2024-03-17T05:18:43;7.5;;;6.1;;